sensor_id;sensor_type;location;lat;lon;timestamp;P1;durP1;ratioP1;P2;durP2;ratioP2
10387;SDS011;5240;51.128;4.566;2023-02-02T00:00:59;26.40;;;9.95;;
10387;SDS011;5240;51.128;4.566;2023-02-02T00:03:26;21.85;;;9.23;;
10387;SDS011;5240;51.128;4.566;2023-02-02T00:05:54;21.50;;;7.40;;
10387;SDS011;5240;51.128;4.566;2023-02-02T00:08:21;25.85;;;6.43;;
10387;SDS011;5240;51.128;4.566;2023-02-02T00:10:50;19.88;;;4.70;;
10387;SDS011;5240;51.128;4.566;2023-02-02T00:13:17;19.38;;;4.53;;
10387;SDS011;5240;51.128;4.566;2023-02-02T00:15:44;12.32;;;4.32;;
10387;SDS011;5240;51.128;4.566;2023-02-02T00:18:12;16.08;;;4.53;;
10387;SDS011;5240;51.128;4.566;2023-02-02T00:20:39;15.90;;;5.40;;
10387;SDS011;5240;51.128;4.566;2023-02-02T00:23:06;16.98;;;4.22;;
10387;SDS011;5240;51.128;4.566;2023-02-02T00:25:33;14.55;;;4.95;;
10387;SDS011;5240;51.128;4.566;2023-02-02T00:28:02;19.17;;;4.93;;
10387;SDS011;5240;51.128;4.566;2023-02-02T00:30:29;18.90;;;5.50;;
10387;SDS011;5240;51.128;4.566;2023-02-02T00:32:56;23.63;;;6.45;;
10387;SDS011;5240;51.128;4.566;2023-02-02T00:35:23;21.23;;;6.70;;
10387;SDS011;5240;51.128;4.566;2023-02-02T00:37:51;23.35;;;10.25;;
10387;SDS011;5240;51.128;4.566;2023-02-02T00:40:18;24.27;;;10.00;;
10387;SDS011;5240;51.128;4.566;2023-02-02T00:42:45;28.88;;;11.65;;
10387;SDS011;5240;51.128;4.566;2023-02-02T00:45:16;21.02;;;9.70;;
10387;SDS011;5240;51.128;4.566;2023-02-02T00:47:42;28.10;;;12.93;;
10387;SDS011;5240;51.128;4.566;2023-02-02T00:50:11;31.90;;;12.50;;
10387;SDS011;5240;51.128;4.566;2023-02-02T00:52:40;20.75;;;7.60;;
10387;SDS011;5240;51.128;4.566;2023-02-02T00:55:07;22.95;;;9.55;;
10387;SDS011;5240;51.128;4.566;2023-02-02T00:57:35;23.00;;;7.45;;
10387;SDS011;5240;51.128;4.566;2023-02-02T01:00:04;20.60;;;7.38;;
10387;SDS011;5240;51.128;4.566;2023-02-02T01:02:34;24.63;;;6.13;;
10387;SDS011;5240;51.128;4.566;2023-02-02T01:05:01;20.10;;;6.15;;
10387;SDS011;5240;51.128;4.566;2023-02-02T01:07:28;22.63;;;5.53;;
10387;SDS011;5240;51.128;4.566;2023-02-02T01:09:55;17.80;;;4.13;;
10387;SDS011;5240;51.128;4.566;2023-02-02T01:12:23;18.00;;;4.53;;
10387;SDS011;5240;51.128;4.566;2023-02-02T01:14:50;16.00;;;4.10;;
10387;SDS011;5240;51.128;4.566;2023-02-02T01:17:17;15.27;;;4.30;;
10387;SDS011;5240;51.128;4.566;2023-02-02T01:19:46;15.55;;;4.50;;
10387;SDS011;5240;51.128;4.566;2023-02-02T01:22:13;17.63;;;4.50;;
10387;SDS011;5240;51.128;4.566;2023-02-02T01:24:40;14.55;;;4.43;;
10387;SDS011;5240;51.128;4.566;2023-02-02T01:27:07;15.52;;;4.97;;
10387;SDS011;5240;51.128;4.566;2023-02-02T01:29:34;16.67;;;3.67;;
10387;SDS011;5240;51.128;4.566;2023-02-02T01:32:01;15.25;;;3.90;;
10387;SDS011;5240;51.128;4.566;2023-02-02T01:34:28;14.10;;;3.85;;
10387;SDS011;5240;51.128;4.566;2023-02-02T01:36:56;15.63;;;4.38;;
10387;SDS011;5240;51.128;4.566;2023-02-02T01:39:23;16.80;;;4.30;;
10387;SDS011;5240;51.128;4.566;2023-02-02T01:41:51;15.63;;;3.80;;
10387;SDS011;5240;51.128;4.566;2023-02-02T01:47:24;17.20;;;4.22;;
10387;SDS011;5240;51.128;4.566;2023-02-02T01:49:54;18.92;;;4.30;;
10387;SDS011;5240;51.128;4.566;2023-02-02T01:52:23;16.63;;;4.32;;
10387;SDS011;5240;51.128;4.566;2023-02-02T01:54:54;15.55;;;4.13;;
10387;SDS011;5240;51.128;4.566;2023-02-02T01:57:25;16.08;;;4.47;;
10387;SDS011;5240;51.128;4.566;2023-02-02T01:59:54;20.65;;;4.43;;
10387;SDS011;5240;51.128;4.566;2023-02-02T02:02:24;19.08;;;4.13;;
10387;SDS011;5240;51.128;4.566;2023-02-02T02:04:53;16.17;;;4.03;;
10387;SDS011;5240;51.128;4.566;2023-02-02T02:07:20;18.88;;;5.03;;
10387;SDS011;5240;51.128;4.566;2023-02-02T02:09:49;16.77;;;4.45;;
10387;SDS011;5240;51.128;4.566;2023-02-02T02:12:16;18.83;;;5.07;;
10387;SDS011;5240;51.128;4.566;2023-02-02T02:14:45;17.88;;;4.60;;
10387;SDS011;5240;51.128;4.566;2023-02-02T02:17:36;17.95;;;3.80;;
10387;SDS011;5240;51.128;4.566;2023-02-02T02:24:03;20.55;;;4.05;;
10387;SDS011;5240;51.128;4.566;2023-02-02T02:27:30;16.88;;;4.43;;
10387;SDS011;5240;51.128;4.566;2023-02-02T02:30:18;23.00;;;5.55;;
10387;SDS011;5240;51.128;4.566;2023-02-02T02:33:11;15.48;;;4.05;;
10387;SDS011;5240;51.128;4.566;2023-02-02T02:35:46;15.88;;;4.00;;
10387;SDS011;5240;51.128;4.566;2023-02-02T02:38:22;19.20;;;3.92;;
10387;SDS011;5240;51.128;4.566;2023-02-02T02:41:00;21.27;;;5.25;;
10387;SDS011;5240;51.128;4.566;2023-02-02T02:43:35;19.33;;;4.35;;
10387;SDS011;5240;51.128;4.566;2023-02-02T02:46:06;15.55;;;4.63;;
10387;SDS011;5240;51.128;4.566;2023-02-02T02:48:36;18.13;;;4.35;;
10387;SDS011;5240;51.128;4.566;2023-02-02T02:51:04;21.48;;;4.85;;
10387;SDS011;5240;51.128;4.566;2023-02-02T02:53:32;17.58;;;4.88;;
10387;SDS011;5240;51.128;4.566;2023-02-02T02:56:04;19.25;;;4.57;;
10387;SDS011;5240;51.128;4.566;2023-02-02T02:58:45;20.27;;;5.15;;
10387;SDS011;5240;51.128;4.566;2023-02-02T03:01:19;14.93;;;4.45;;
10387;SDS011;5240;51.128;4.566;2023-02-02T03:03:56;17.38;;;4.60;;
10387;SDS011;5240;51.128;4.566;2023-02-02T03:06:33;15.20;;;4.30;;
10387;SDS011;5240;51.128;4.566;2023-02-02T03:09:07;17.95;;;4.00;;
10387;SDS011;5240;51.128;4.566;2023-02-02T03:11:37;17.23;;;4.32;;
10387;SDS011;5240;51.128;4.566;2023-02-02T03:14:05;17.13;;;4.45;;
10387;SDS011;5240;51.128;4.566;2023-02-02T03:16:34;18.90;;;5.22;;
10387;SDS011;5240;51.128;4.566;2023-02-02T03:19:03;20.85;;;4.72;;
10387;SDS011;5240;51.128;4.566;2023-02-02T03:21:32;16.60;;;3.95;;
10387;SDS011;5240;51.128;4.566;2023-02-02T03:23:59;17.45;;;4.65;;
10387;SDS011;5240;51.128;4.566;2023-02-02T03:26:27;17.35;;;3.72;;
10387;SDS011;5240;51.128;4.566;2023-02-02T03:28:54;17.73;;;4.53;;
10387;SDS011;5240;51.128;4.566;2023-02-02T03:31:22;14.43;;;4.22;;
10387;SDS011;5240;51.128;4.566;2023-02-02T03:33:51;20.50;;;4.40;;
10387;SDS011;5240;51.128;4.566;2023-02-02T03:36:20;16.30;;;4.35;;
10387;SDS011;5240;51.128;4.566;2023-02-02T03:38:47;18.08;;;4.47;;
10387;SDS011;5240;51.128;4.566;2023-02-02T03:41:14;17.15;;;4.15;;
10387;SDS011;5240;51.128;4.566;2023-02-02T03:43:41;21.58;;;4.65;;
10387;SDS011;5240;51.128;4.566;2023-02-02T03:46:08;18.80;;;4.70;;
10387;SDS011;5240;51.128;4.566;2023-02-02T03:48:36;15.02;;;4.07;;
10387;SDS011;5240;51.128;4.566;2023-02-02T03:51:05;17.48;;;4.38;;
10387;SDS011;5240;51.128;4.566;2023-02-02T03:53:34;18.42;;;4.10;;
10387;SDS011;5240;51.128;4.566;2023-02-02T03:56:01;23.85;;;4.45;;
10387;SDS011;5240;51.128;4.566;2023-02-02T03:58:28;22.70;;;4.80;;
10387;SDS011;5240;51.128;4.566;2023-02-02T04:00:58;16.85;;;3.63;;
10387;SDS011;5240;51.128;4.566;2023-02-02T04:03:28;17.77;;;4.35;;
10387;SDS011;5240;51.128;4.566;2023-02-02T04:05:55;15.55;;;3.72;;
10387;SDS011;5240;51.128;4.566;2023-02-02T04:08:22;15.10;;;4.43;;
10387;SDS011;5240;51.128;4.566;2023-02-02T04:10:51;17.60;;;4.13;;
10387;SDS011;5240;51.128;4.566;2023-02-02T04:13:18;17.33;;;4.28;;
10387;SDS011;5240;51.128;4.566;2023-02-02T04:15:45;14.18;;;4.07;;
10387;SDS011;5240;51.128;4.566;2023-02-02T04:18:12;17.98;;;4.20;;
10387;SDS011;5240;51.128;4.566;2023-02-02T04:20:40;17.08;;;3.95;;
10387;SDS011;5240;51.128;4.566;2023-02-02T04:23:07;18.70;;;4.57;;
10387;SDS011;5240;51.128;4.566;2023-02-02T04:25:34;15.90;;;4.07;;
10387;SDS011;5240;51.128;4.566;2023-02-02T04:28:02;12.35;;;3.58;;
10387;SDS011;5240;51.128;4.566;2023-02-02T04:30:30;12.07;;;3.85;;
10387;SDS011;5240;51.128;4.566;2023-02-02T04:32:57;17.52;;;4.20;;
10387;SDS011;5240;51.128;4.566;2023-02-02T04:35:24;13.80;;;3.63;;
10387;SDS011;5240;51.128;4.566;2023-02-02T04:37:51;18.38;;;4.00;;
10387;SDS011;5240;51.128;4.566;2023-02-02T04:40:20;12.13;;;3.72;;
10387;SDS011;5240;51.128;4.566;2023-02-02T04:42:48;13.18;;;3.92;;
10387;SDS011;5240;51.128;4.566;2023-02-02T04:45:16;16.30;;;3.95;;
10387;SDS011;5240;51.128;4.566;2023-02-02T04:47:43;13.70;;;3.90;;
10387;SDS011;5240;51.128;4.566;2023-02-02T04:50:10;16.38;;;4.07;;
10387;SDS011;5240;51.128;4.566;2023-02-02T04:52:38;14.27;;;3.30;;
10387;SDS011;5240;51.128;4.566;2023-02-02T04:55:05;18.73;;;4.30;;
10387;SDS011;5240;51.128;4.566;2023-02-02T04:57:33;18.50;;;4.15;;
10387;SDS011;5240;51.128;4.566;2023-02-02T05:00:00;12.07;;;3.55;;
10387;SDS011;5240;51.128;4.566;2023-02-02T05:02:29;19.42;;;4.15;;
10387;SDS011;5240;51.128;4.566;2023-02-02T05:04:56;11.40;;;3.83;;
10387;SDS011;5240;51.128;4.566;2023-02-02T05:07:23;13.75;;;4.07;;
10387;SDS011;5240;51.128;4.566;2023-02-02T05:09:50;18.80;;;4.53;;
10387;SDS011;5240;51.128;4.566;2023-02-02T05:12:17;15.93;;;4.05;;
10387;SDS011;5240;51.128;4.566;2023-02-02T05:14:44;18.23;;;4.28;;
10387;SDS011;5240;51.128;4.566;2023-02-02T05:17:11;13.32;;;4.43;;
10387;SDS011;5240;51.128;4.566;2023-02-02T05:19:40;15.63;;;3.88;;
10387;SDS011;5240;51.128;4.566;2023-02-02T05:22:07;14.85;;;4.35;;
10387;SDS011;5240;51.128;4.566;2023-02-02T05:24:34;18.77;;;3.63;;
10387;SDS011;5240;51.128;4.566;2023-02-02T05:27:01;15.52;;;3.78;;
10387;SDS011;5240;51.128;4.566;2023-02-02T05:29:29;15.35;;;4.18;;
10387;SDS011;5240;51.128;4.566;2023-02-02T05:31:56;16.75;;;4.10;;
10387;SDS011;5240;51.128;4.566;2023-02-02T05:34:23;15.00;;;3.92;;
10387;SDS011;5240;51.128;4.566;2023-02-02T05:36:52;14.73;;;4.15;;
10387;SDS011;5240;51.128;4.566;2023-02-02T05:39:19;15.35;;;4.03;;
10387;SDS011;5240;51.128;4.566;2023-02-02T05:41:46;16.35;;;4.68;;
10387;SDS011;5240;51.128;4.566;2023-02-02T05:44:13;14.23;;;4.72;;
10387;SDS011;5240;51.128;4.566;2023-02-02T05:46:41;19.02;;;5.28;;
10387;SDS011;5240;51.128;4.566;2023-02-02T05:49:10;17.15;;;5.00;;
10387;SDS011;5240;51.128;4.566;2023-02-02T05:51:39;16.15;;;4.63;;
10387;SDS011;5240;51.128;4.566;2023-02-02T05:54:10;18.27;;;4.00;;
10387;SDS011;5240;51.128;4.566;2023-02-02T05:56:41;12.60;;;4.80;;
10387;SDS011;5240;51.128;4.566;2023-02-02T05:59:08;18.23;;;4.82;;
10387;SDS011;5240;51.128;4.566;2023-02-02T06:01:35;18.58;;;4.57;;
10387;SDS011;5240;51.128;4.566;2023-02-02T06:04:02;17.85;;;4.03;;
10387;SDS011;5240;51.128;4.566;2023-02-02T06:06:29;15.93;;;4.20;;
10387;SDS011;5240;51.128;4.566;2023-02-02T06:08:57;14.65;;;3.85;;
10387;SDS011;5240;51.128;4.566;2023-02-02T06:11:25;21.20;;;4.97;;
10387;SDS011;5240;51.128;4.566;2023-02-02T06:13:52;20.92;;;4.53;;
10387;SDS011;5240;51.128;4.566;2023-02-02T06:16:19;20.23;;;4.50;;
10387;SDS011;5240;51.128;4.566;2023-02-02T06:18:47;13.32;;;4.22;;
10387;SDS011;5240;51.128;4.566;2023-02-02T06:21:14;19.15;;;4.47;;
10387;SDS011;5240;51.128;4.566;2023-02-02T06:23:41;14.65;;;4.25;;
10387;SDS011;5240;51.128;4.566;2023-02-02T06:26:09;15.80;;;4.10;;
10387;SDS011;5240;51.128;4.566;2023-02-02T06:28:38;15.55;;;4.50;;
10387;SDS011;5240;51.128;4.566;2023-02-02T06:31:06;13.90;;;4.22;;
10387;SDS011;5240;51.128;4.566;2023-02-02T06:33:35;18.08;;;4.00;;
10387;SDS011;5240;51.128;4.566;2023-02-02T06:36:03;16.83;;;4.45;;
10387;SDS011;5240;51.128;4.566;2023-02-02T06:38:31;16.77;;;4.15;;
10387;SDS011;5240;51.128;4.566;2023-02-02T06:40:59;16.98;;;4.72;;
10387;SDS011;5240;51.128;4.566;2023-02-02T06:43:26;13.55;;;3.90;;
10387;SDS011;5240;51.128;4.566;2023-02-02T06:45:55;15.15;;;4.00;;
10387;SDS011;5240;51.128;4.566;2023-02-02T06:48:28;18.63;;;4.15;;
10387;SDS011;5240;51.128;4.566;2023-02-02T06:50:56;13.85;;;4.38;;
10387;SDS011;5240;51.128;4.566;2023-02-02T06:53:25;18.98;;;5.35;;
10387;SDS011;5240;51.128;4.566;2023-02-02T06:55:53;13.70;;;5.85;;
10387;SDS011;5240;51.128;4.566;2023-02-02T06:58:20;12.68;;;4.47;;
10387;SDS011;5240;51.128;4.566;2023-02-02T07:00:47;13.15;;;4.63;;
10387;SDS011;5240;51.128;4.566;2023-02-02T07:03:17;13.73;;;4.15;;
10387;SDS011;5240;51.128;4.566;2023-02-02T07:05:46;13.50;;;4.03;;
10387;SDS011;5240;51.128;4.566;2023-02-02T07:08:13;33.13;;;5.15;;
10387;SDS011;5240;51.128;4.566;2023-02-02T07:10:41;22.58;;;5.18;;
10387;SDS011;5240;51.128;4.566;2023-02-02T07:13:10;25.63;;;5.13;;
10387;SDS011;5240;51.128;4.566;2023-02-02T07:15:38;15.77;;;4.15;;
10387;SDS011;5240;51.128;4.566;2023-02-02T07:18:06;18.77;;;4.70;;
10387;SDS011;5240;51.128;4.566;2023-02-02T07:20:35;12.88;;;3.75;;
10387;SDS011;5240;51.128;4.566;2023-02-02T07:23:11;17.20;;;4.35;;
10387;SDS011;5240;51.128;4.566;2023-02-02T07:25:39;14.50;;;3.42;;
10387;SDS011;5240;51.128;4.566;2023-02-02T07:28:06;16.75;;;4.20;;
10387;SDS011;5240;51.128;4.566;2023-02-02T07:30:33;18.05;;;4.10;;
10387;SDS011;5240;51.128;4.566;2023-02-02T07:33:12;10.18;;;3.33;;
10387;SDS011;5240;51.128;4.566;2023-02-02T07:35:40;17.05;;;4.00;;
10387;SDS011;5240;51.128;4.566;2023-02-02T07:38:08;19.73;;;3.95;;
10387;SDS011;5240;51.128;4.566;2023-02-02T07:40:36;14.93;;;3.83;;
10387;SDS011;5240;51.128;4.566;2023-02-02T07:43:03;9.90;;;3.25;;
10387;SDS011;5240;51.128;4.566;2023-02-02T07:45:33;16.17;;;4.10;;
10387;SDS011;5240;51.128;4.566;2023-02-02T07:48:01;15.98;;;3.85;;
10387;SDS011;5240;51.128;4.566;2023-02-02T07:50:30;17.67;;;4.15;;
10387;SDS011;5240;51.128;4.566;2023-02-02T07:53:01;14.40;;;4.75;;
10387;SDS011;5240;51.128;4.566;2023-02-02T07:55:28;10.55;;;3.55;;
10387;SDS011;5240;51.128;4.566;2023-02-02T07:57:58;13.30;;;3.50;;
10387;SDS011;5240;51.128;4.566;2023-02-02T08:00:26;16.42;;;4.55;;
10387;SDS011;5240;51.128;4.566;2023-02-02T08:02:55;21.35;;;4.03;;
10387;SDS011;5240;51.128;4.566;2023-02-02T08:05:22;17.92;;;3.83;;
10387;SDS011;5240;51.128;4.566;2023-02-02T08:07:51;15.57;;;3.83;;
10387;SDS011;5240;51.128;4.566;2023-02-02T08:10:22;17.20;;;3.70;;
10387;SDS011;5240;51.128;4.566;2023-02-02T08:12:50;17.00;;;4.05;;
10387;SDS011;5240;51.128;4.566;2023-02-02T08:15:17;12.35;;;3.72;;
10387;SDS011;5240;51.128;4.566;2023-02-02T08:17:44;19.75;;;4.45;;
10387;SDS011;5240;51.128;4.566;2023-02-02T08:20:16;18.42;;;3.92;;
10387;SDS011;5240;51.128;4.566;2023-02-02T08:34:46;14.88;;;3.72;;
10387;SDS011;5240;51.128;4.566;2023-02-02T08:37:16;14.38;;;3.25;;
10387;SDS011;5240;51.128;4.566;2023-02-02T08:39:43;12.75;;;3.20;;
10387;SDS011;5240;51.128;4.566;2023-02-02T08:42:10;15.95;;;4.00;;
10387;SDS011;5240;51.128;4.566;2023-02-02T08:44:37;17.85;;;3.70;;
10387;SDS011;5240;51.128;4.566;2023-02-02T08:47:07;10.82;;;2.83;;
10387;SDS011;5240;51.128;4.566;2023-02-02T08:49:34;10.32;;;3.60;;
10387;SDS011;5240;51.128;4.566;2023-02-02T08:52:03;14.38;;;3.55;;
10387;SDS011;5240;51.128;4.566;2023-02-02T08:54:30;16.90;;;3.40;;
10387;SDS011;5240;51.128;4.566;2023-02-02T08:56:58;14.70;;;3.92;;
10387;SDS011;5240;51.128;4.566;2023-02-02T08:59:26;11.75;;;3.83;;
10387;SDS011;5240;51.128;4.566;2023-02-02T09:01:53;8.77;;;2.95;;
10387;SDS011;5240;51.128;4.566;2023-02-02T09:04:21;11.35;;;3.28;;
10387;SDS011;5240;51.128;4.566;2023-02-02T09:06:50;16.52;;;3.80;;
10387;SDS011;5240;51.128;4.566;2023-02-02T09:09:19;16.27;;;3.65;;
10387;SDS011;5240;51.128;4.566;2023-02-02T09:14:37;10.48;;;3.22;;
10387;SDS011;5240;51.128;4.566;2023-02-02T09:17:04;15.82;;;4.15;;
10387;SDS011;5240;51.128;4.566;2023-02-02T09:19:31;9.32;;;3.03;;
10387;SDS011;5240;51.128;4.566;2023-02-02T09:21:58;16.23;;;4.07;;
10387;SDS011;5240;51.128;4.566;2023-02-02T09:24:27;11.43;;;3.65;;
10387;SDS011;5240;51.128;4.566;2023-02-02T09:26:55;14.93;;;3.75;;
10387;SDS011;5240;51.128;4.566;2023-02-02T09:29:25;12.18;;;3.80;;
10387;SDS011;5240;51.128;4.566;2023-02-02T09:34:32;12.10;;;3.38;;
10387;SDS011;5240;51.128;4.566;2023-02-02T09:37:00;12.02;;;3.45;;
10387;SDS011;5240;51.128;4.566;2023-02-02T09:48:18;11.10;;;3.58;;
10387;SDS011;5240;51.128;4.566;2023-02-02T09:50:53;13.30;;;3.60;;
10387;SDS011;5240;51.128;4.566;2023-02-02T09:53:32;14.43;;;4.25;;
10387;SDS011;5240;51.128;4.566;2023-02-02T09:56:07;11.63;;;3.08;;
10387;SDS011;5240;51.128;4.566;2023-02-02T09:58:47;10.27;;;3.47;;
10387;SDS011;5240;51.128;4.566;2023-02-02T10:03:55;13.98;;;3.50;;
10387;SDS011;5240;51.128;4.566;2023-02-02T10:06:28;11.68;;;3.28;;
10387;SDS011;5240;51.128;4.566;2023-02-02T10:09:02;12.07;;;3.75;;
10387;SDS011;5240;51.128;4.566;2023-02-02T10:11:48;16.42;;;3.53;;
10387;SDS011;5240;51.128;4.566;2023-02-02T10:14:23;12.77;;;3.58;;
10387;SDS011;5240;51.128;4.566;2023-02-02T10:16:55;14.27;;;3.40;;
10387;SDS011;5240;51.128;4.566;2023-02-02T10:19:26;19.25;;;4.55;;
10387;SDS011;5240;51.128;4.566;2023-02-02T10:21:58;13.82;;;4.05;;
10387;SDS011;5240;51.128;4.566;2023-02-02T10:24:29;11.18;;;3.67;;
10387;SDS011;5240;51.128;4.566;2023-02-02T10:29:42;12.93;;;3.40;;
10387;SDS011;5240;51.128;4.566;2023-02-02T10:32:19;9.45;;;3.15;;
10387;SDS011;5240;51.128;4.566;2023-02-02T10:34:56;8.93;;;3.40;;
10387;SDS011;5240;51.128;4.566;2023-02-02T10:37:32;13.82;;;3.42;;
10387;SDS011;5240;51.128;4.566;2023-02-02T10:40:09;14.98;;;3.25;;
10387;SDS011;5240;51.128;4.566;2023-02-02T10:43:01;11.32;;;3.00;;
10387;SDS011;5240;51.128;4.566;2023-02-02T10:45:39;14.60;;;3.67;;
10387;SDS011;5240;51.128;4.566;2023-02-02T10:48:11;8.45;;;2.70;;
10387;SDS011;5240;51.128;4.566;2023-02-02T10:50:41;10.30;;;3.08;;
10387;SDS011;5240;51.128;4.566;2023-02-02T10:53:11;12.70;;;3.47;;
10387;SDS011;5240;51.128;4.566;2023-02-02T10:55:41;13.27;;;3.97;;
10387;SDS011;5240;51.128;4.566;2023-02-02T10:58:13;16.23;;;4.30;;
10387;SDS011;5240;51.128;4.566;2023-02-02T11:00:51;12.05;;;3.10;;
10387;SDS011;5240;51.128;4.566;2023-02-02T11:03:22;11.90;;;3.65;;
10387;SDS011;5240;51.128;4.566;2023-02-02T11:05:53;11.30;;;3.15;;
10387;SDS011;5240;51.128;4.566;2023-02-02T11:08:40;11.73;;;3.42;;
10387;SDS011;5240;51.128;4.566;2023-02-02T11:11:10;15.95;;;3.78;;
10387;SDS011;5240;51.128;4.566;2023-02-02T11:13:56;9.40;;;3.05;;
10387;SDS011;5240;51.128;4.566;2023-02-02T11:16:28;15.35;;;3.70;;
10387;SDS011;5240;51.128;4.566;2023-02-02T11:18:59;9.02;;;2.90;;
10387;SDS011;5240;51.128;4.566;2023-02-02T11:21:31;13.57;;;3.40;;
10387;SDS011;5240;51.128;4.566;2023-02-02T11:24:02;10.88;;;3.00;;
10387;SDS011;5240;51.128;4.566;2023-02-02T11:26:42;12.35;;;3.45;;
10387;SDS011;5240;51.128;4.566;2023-02-02T11:29:17;11.63;;;3.58;;
10387;SDS011;5240;51.128;4.566;2023-02-02T11:31:51;11.18;;;3.13;;
10387;SDS011;5240;51.128;4.566;2023-02-02T11:34:19;10.18;;;2.85;;
10387;SDS011;5240;51.128;4.566;2023-02-02T11:36:56;12.18;;;3.10;;
10387;SDS011;5240;51.128;4.566;2023-02-02T11:39:29;9.13;;;3.40;;
10387;SDS011;5240;51.128;4.566;2023-02-02T11:42:00;12.63;;;3.53;;
10387;SDS011;5240;51.128;4.566;2023-02-02T11:45:13;15.80;;;3.83;;
10387;SDS011;5240;51.128;4.566;2023-02-02T11:47:47;12.70;;;3.22;;
10387;SDS011;5240;51.128;4.566;2023-02-02T11:50:19;14.27;;;4.03;;
10387;SDS011;5240;51.128;4.566;2023-02-02T11:52:49;9.48;;;3.33;;
10387;SDS011;5240;51.128;4.566;2023-02-02T11:55:17;9.68;;;3.53;;
10387;SDS011;5240;51.128;4.566;2023-02-02T12:00:44;12.75;;;3.63;;
10387;SDS011;5240;51.128;4.566;2023-02-02T12:03:22;9.93;;;3.60;;
10387;SDS011;5240;51.128;4.566;2023-02-02T12:05:51;9.75;;;3.10;;
10387;SDS011;5240;51.128;4.566;2023-02-02T12:08:21;14.55;;;3.45;;
10387;SDS011;5240;51.128;4.566;2023-02-02T12:10:58;14.60;;;3.00;;
10387;SDS011;5240;51.128;4.566;2023-02-02T12:13:36;8.80;;;3.13;;
10387;SDS011;5240;51.128;4.566;2023-02-02T12:16:14;8.32;;;2.97;;
10387;SDS011;5240;51.128;4.566;2023-02-02T12:18:57;11.90;;;2.70;;
10387;SDS011;5240;51.128;4.566;2023-02-02T12:21:34;15.90;;;3.55;;
10387;SDS011;5240;51.128;4.566;2023-02-02T12:24:14;13.20;;;3.45;;
10387;SDS011;5240;51.128;4.566;2023-02-02T12:26:59;7.60;;;2.90;;
10387;SDS011;5240;51.128;4.566;2023-02-02T12:29:47;11.00;;;3.10;;
10387;SDS011;5240;51.128;4.566;2023-02-02T12:42:00;9.77;;;4.00;;
10387;SDS011;5240;51.128;4.566;2023-02-02T12:44:40;8.73;;;3.28;;
10387;SDS011;5240;51.128;4.566;2023-02-02T12:47:17;7.57;;;2.95;;
10387;SDS011;5240;51.128;4.566;2023-02-02T13:28:42;12.32;;;3.60;;
10387;SDS011;5240;51.128;4.566;2023-02-02T13:31:16;9.32;;;3.63;;
10387;SDS011;5240;51.128;4.566;2023-02-02T13:33:48;10.30;;;3.42;;
10387;SDS011;5240;51.128;4.566;2023-02-02T13:36:27;7.20;;;3.40;;
10387;SDS011;5240;51.128;4.566;2023-02-02T13:39:11;8.35;;;3.80;;
10387;SDS011;5240;51.128;4.566;2023-02-02T13:41:48;8.50;;;3.08;;
10387;SDS011;5240;51.128;4.566;2023-02-02T13:44:25;9.85;;;3.55;;
10387;SDS011;5240;51.128;4.566;2023-02-02T13:47:02;11.23;;;3.65;;
10387;SDS011;5240;51.128;4.566;2023-02-02T13:49:35;9.80;;;3.63;;
10387;SDS011;5240;51.128;4.566;2023-02-02T13:58:10;12.15;;;4.55;;
10387;SDS011;5240;51.128;4.566;2023-02-02T14:01:00;6.93;;;3.60;;
10387;SDS011;5240;51.128;4.566;2023-02-02T14:03:49;11.25;;;4.45;;
10387;SDS011;5240;51.128;4.566;2023-02-02T14:06:19;12.43;;;4.65;;
10387;SDS011;5240;51.128;4.566;2023-02-02T14:08:50;8.95;;;4.13;;
10387;SDS011;5240;51.128;4.566;2023-02-02T14:11:23;9.85;;;4.20;;
10387;SDS011;5240;51.128;4.566;2023-02-02T14:13:57;8.30;;;4.72;;
10387;SDS011;5240;51.128;4.566;2023-02-02T14:16:52;12.60;;;5.10;;
10387;SDS011;5240;51.128;4.566;2023-02-02T14:49:34;20.00;;;10.50;;
10387;SDS011;5240;51.128;4.566;2023-02-02T14:52:02;15.75;;;8.20;;
10387;SDS011;5240;51.128;4.566;2023-02-02T14:54:30;16.42;;;6.68;;
10387;SDS011;5240;51.128;4.566;2023-02-02T14:57:02;14.32;;;6.15;;
10387;SDS011;5240;51.128;4.566;2023-02-02T14:59:33;11.40;;;6.03;;
10387;SDS011;5240;51.128;4.566;2023-02-02T15:02:07;8.82;;;5.68;;
10387;SDS011;5240;51.128;4.566;2023-02-02T15:10:08;13.60;;;7.25;;
10387;SDS011;5240;51.128;4.566;2023-02-02T15:12:37;10.07;;;7.10;;
10387;SDS011;5240;51.128;4.566;2023-02-02T15:15:12;11.98;;;7.53;;
10387;SDS011;5240;51.128;4.566;2023-02-02T15:18:02;11.70;;;6.70;;
10387;SDS011;5240;51.128;4.566;2023-02-02T15:20:39;10.55;;;6.00;;
10387;SDS011;5240;51.128;4.566;2023-02-02T15:23:15;16.30;;;6.72;;
10387;SDS011;5240;51.128;4.566;2023-02-02T15:25:52;10.45;;;6.03;;
10387;SDS011;5240;51.128;4.566;2023-02-02T15:28:25;11.60;;;5.88;;
10387;SDS011;5240;51.128;4.566;2023-02-02T15:31:03;15.52;;;5.80;;
10387;SDS011;5240;51.128;4.566;2023-02-02T15:33:38;10.15;;;6.03;;
10387;SDS011;5240;51.128;4.566;2023-02-02T15:36:09;8.85;;;5.60;;
10387;SDS011;5240;51.128;4.566;2023-02-02T15:38:46;9.65;;;5.93;;
10387;SDS011;5240;51.128;4.566;2023-02-02T15:41:19;13.40;;;6.18;;
10387;SDS011;5240;51.128;4.566;2023-02-02T15:43:49;9.75;;;5.43;;
10387;SDS011;5240;51.128;4.566;2023-02-02T15:46:17;9.93;;;5.90;;
10387;SDS011;5240;51.128;4.566;2023-02-02T15:51:56;7.97;;;4.90;;
10387;SDS011;5240;51.128;4.566;2023-02-02T15:54:26;11.45;;;5.50;;
10387;SDS011;5240;51.128;4.566;2023-02-02T15:56:56;6.88;;;5.18;;
10387;SDS011;5240;51.128;4.566;2023-02-02T15:59:25;7.43;;;5.10;;
10387;SDS011;5240;51.128;4.566;2023-02-02T16:01:56;8.18;;;4.88;;
10387;SDS011;5240;51.128;4.566;2023-02-02T16:04:30;9.55;;;5.18;;
10387;SDS011;5240;51.128;4.566;2023-02-02T16:07:00;8.25;;;4.70;;
10387;SDS011;5240;51.128;4.566;2023-02-02T16:09:29;5.55;;;4.28;;
10387;SDS011;5240;51.128;4.566;2023-02-02T16:12:00;7.55;;;4.32;;
10387;SDS011;5240;51.128;4.566;2023-02-02T16:14:29;6.38;;;3.85;;
10387;SDS011;5240;51.128;4.566;2023-02-02T16:17:08;6.32;;;3.78;;
10387;SDS011;5240;51.128;4.566;2023-02-02T16:19:36;5.80;;;4.13;;
10387;SDS011;5240;51.128;4.566;2023-02-02T16:22:08;25.33;;;17.23;;
10387;SDS011;5240;51.128;4.566;2023-02-02T16:24:40;5.78;;;3.72;;
10387;SDS011;5240;51.128;4.566;2023-02-02T16:27:11;10.40;;;4.03;;
10387;SDS011;5240;51.128;4.566;2023-02-02T16:29:40;5.18;;;3.60;;
10387;SDS011;5240;51.128;4.566;2023-02-02T16:32:19;7.85;;;3.88;;
10387;SDS011;5240;51.128;4.566;2023-02-02T16:34:52;5.82;;;3.65;;
10387;SDS011;5240;51.128;4.566;2023-02-02T16:37:20;7.65;;;3.90;;
10387;SDS011;5240;51.128;4.566;2023-02-02T16:39:49;7.65;;;3.55;;
10387;SDS011;5240;51.128;4.566;2023-02-02T16:42:27;6.88;;;3.30;;
10387;SDS011;5240;51.128;4.566;2023-02-02T16:44:56;7.63;;;3.88;;
10387;SDS011;5240;51.128;4.566;2023-02-02T16:47:34;8.23;;;3.95;;
10387;SDS011;5240;51.128;4.566;2023-02-02T16:50:17;6.97;;;3.88;;
10387;SDS011;5240;51.128;4.566;2023-02-02T16:52:52;9.23;;;4.53;;
10387;SDS011;5240;51.128;4.566;2023-02-02T16:55:22;9.70;;;4.03;;
10387;SDS011;5240;51.128;4.566;2023-02-02T16:57:51;10.25;;;4.18;;
10387;SDS011;5240;51.128;4.566;2023-02-02T17:00:19;10.15;;;4.53;;
10387;SDS011;5240;51.128;4.566;2023-02-02T17:02:48;7.13;;;4.35;;
10387;SDS011;5240;51.128;4.566;2023-02-02T17:05:18;5.07;;;4.47;;
10387;SDS011;5240;51.128;4.566;2023-02-02T17:07:49;8.05;;;4.30;;
10387;SDS011;5240;51.128;4.566;2023-02-02T17:10:20;6.00;;;4.13;;
10387;SDS011;5240;51.128;4.566;2023-02-02T17:12:51;7.30;;;3.60;;
10387;SDS011;5240;51.128;4.566;2023-02-02T17:15:29;8.90;;;4.68;;
10387;SDS011;5240;51.128;4.566;2023-02-02T17:17:58;11.70;;;4.20;;
10387;SDS011;5240;51.128;4.566;2023-02-02T17:20:25;8.02;;;4.07;;
10387;SDS011;5240;51.128;4.566;2023-02-02T17:22:53;9.45;;;4.93;;
10387;SDS011;5240;51.128;4.566;2023-02-02T17:25:25;8.82;;;4.05;;
10387;SDS011;5240;51.128;4.566;2023-02-02T17:27:57;7.28;;;4.43;;